sensor_id;sensor_type;location;lat;lon;timestamp;pressure;altitude;pressure_sealevel;temperature;humidity
8298;BME280;4187;42.778;23.242;2023-09-07T00:01:55;95777.28;;;21.04;100.00
8298;BME280;4187;42.778;23.242;2023-09-07T00:04:22;95776.75;;;21.08;100.00
8298;BME280;4187;42.778;23.242;2023-09-07T00:06:49;95777.94;;;21.06;100.00
8298;BME280;4187;42.778;23.242;2023-09-07T00:09:16;95779.06;;;21.11;100.00
8298;BME280;4187;42.778;23.242;2023-09-07T00:11:45;95777.00;;;21.13;100.00
8298;BME280;4187;42.778;23.242;2023-09-07T00:14:12;95770.56;;;21.14;100.00
8298;BME280;4187;42.778;23.242;2023-09-07T00:16:39;95772.47;;;21.14;100.00
8298;BME280;4187;42.778;23.242;2023-09-07T00:19:06;95776.38;;;21.11;100.00
8298;BME280;4187;42.778;23.242;2023-09-07T00:21:33;95765.75;;;21.03;100.00
8298;BME280;4187;42.778;23.242;2023-09-07T00:24:00;95774.59;;;21.04;100.00
8298;BME280;4187;42.778;23.242;2023-09-07T00:26:31;95767.38;;;20.98;100.00
8298;BME280;4187;42.778;23.242;2023-09-07T00:28:59;95773.38;;;21.06;100.00
8298;BME280;4187;42.778;23.242;2023-09-07T00:31:26;95780.56;;;20.99;100.00
8298;BME280;4187;42.778;23.242;2023-09-07T00:33:53;95756.25;;;20.73;100.00
8298;BME280;4187;42.778;23.242;2023-09-07T00:36:20;95770.59;;;20.86;100.00
8298;BME280;4187;42.778;23.242;2023-09-07T00:38:47;95771.41;;;20.87;100.00
8298;BME280;4187;42.778;23.242;2023-09-07T00:41:13;95776.97;;;20.85;100.00
8298;BME280;4187;42.778;23.242;2023-09-07T00:43:40;95769.75;;;20.86;100.00
8298;BME280;4187;42.778;23.242;2023-09-07T00:46:09;95770.97;;;20.83;100.00
8298;BME280;4187;42.778;23.242;2023-09-07T00:48:36;95748.38;;;20.65;100.00
8298;BME280;4187;42.778;23.242;2023-09-07T00:51:03;95754.13;;;20.62;100.00
8298;BME280;4187;42.778;23.242;2023-09-07T00:53:30;95763.00;;;20.62;100.00
8298;BME280;4187;42.778;23.242;2023-09-07T00:55:58;95763.63;;;20.64;100.00
8298;BME280;4187;42.778;23.242;2023-09-07T00:58:26;95773.50;;;20.64;100.00
8298;BME280;4187;42.778;23.242;2023-09-07T01:00:53;95769.81;;;20.65;100.00
8298;BME280;4187;42.778;23.242;2023-09-07T01:03:22;95771.91;;;20.69;100.00
8298;BME280;4187;42.778;23.242;2023-09-07T01:05:52;95765.47;;;20.64;100.00
8298;BME280;4187;42.778;23.242;2023-09-07T01:08:24;95752.66;;;20.59;100.00
8298;BME280;4187;42.778;23.242;2023-09-07T01:10:52;95767.06;;;20.58;100.00
8298;BME280;4187;42.778;23.242;2023-09-07T01:13:19;95717.72;;;20.25;100.00
8298;BME280;4187;42.778;23.242;2023-09-07T01:15:46;95761.25;;;20.55;100.00
8298;BME280;4187;42.778;23.242;2023-09-07T01:18:14;95759.38;;;20.49;100.00
8298;BME280;4187;42.778;23.242;2023-09-07T01:20:44;95761.03;;;20.50;100.00
8298;BME280;4187;42.778;23.242;2023-09-07T01:23:13;95766.00;;;20.53;100.00
8298;BME280;4187;42.778;23.242;2023-09-07T01:25:40;95756.25;;;20.45;100.00
8298;BME280;4187;42.778;23.242;2023-09-07T01:28:08;95760.31;;;20.41;100.00
8298;BME280;4187;42.778;23.242;2023-09-07T01:30:36;95746.53;;;20.44;100.00
8298;BME280;4187;42.778;23.242;2023-09-07T01:33:04;95761.03;;;20.50;100.00
8298;BME280;4187;42.778;23.242;2023-09-07T01:35:33;95769.50;;;20.53;100.00
8298;BME280;4187;42.778;23.242;2023-09-07T01:38:00;95770.66;;;20.44;100.00
8298;BME280;4187;42.778;23.242;2023-09-07T01:40:28;95772.53;;;20.44;100.00
8298;BME280;4187;42.778;23.242;2023-09-07T01:42:55;95768.81;;;20.45;100.00
8298;BME280;4187;42.778;23.242;2023-09-07T01:45:22;95767.81;;;20.46;100.00
8298;BME280;4187;42.778;23.242;2023-09-07T01:47:49;95768.44;;;20.48;100.00
8298;BME280;4187;42.778;23.242;2023-09-07T01:50:16;95764.09;;;20.47;100.00
8298;BME280;4187;42.778;23.242;2023-09-07T01:52:46;95768.81;;;20.45;100.00
8298;BME280;4187;42.778;23.242;2023-09-07T01:55:14;95762.59;;;20.38;100.00
8298;BME280;4187;42.778;23.242;2023-09-07T01:57:42;95760.06;;;20.36;100.00
8298;BME280;4187;42.778;23.242;2023-09-07T02:00:10;95769.19;;;20.42;100.00
8298;BME280;4187;42.778;23.242;2023-09-07T02:02:37;95759.94;;;20.44;100.00
8298;BME280;4187;42.778;23.242;2023-09-07T02:05:05;95752.50;;;20.40;100.00
8298;BME280;4187;42.778;23.242;2023-09-07T02:07:32;95752.56;;;20.46;100.00
8298;BME280;4187;42.778;23.242;2023-09-07T02:09:58;95760.00;;;20.51;100.00
8298;BME280;4187;42.778;23.242;2023-09-07T02:12:25;95763.69;;;20.50;100.00
8298;BME280;4187;42.778;23.242;2023-09-07T02:14:53;95762.31;;;20.54;100.00
8298;BME280;4187;42.778;23.242;2023-09-07T02:17:20;95748.13;;;20.39;100.00
8298;BME280;4187;42.778;23.242;2023-09-07T02:19:47;95765.63;;;20.56;100.00
8298;BME280;4187;42.778;23.242;2023-09-07T02:22:14;95766.25;;;20.58;100.00
8298;BME280;4187;42.778;23.242;2023-09-07T02:24:41;95766.25;;;20.58;100.00
8298;BME280;4187;42.778;23.242;2023-09-07T02:27:08;95773.78;;;20.48;100.00
8298;BME280;4187;42.778;23.242;2023-09-07T02:29:34;95766.53;;;20.42;100.00
8298;BME280;4187;42.778;23.242;2023-09-07T02:32:04;95770.41;;;20.39;100.00
8298;BME280;4187;42.778;23.242;2023-09-07T02:34:31;95759.91;;;20.38;100.00
8298;BME280;4187;42.778;23.242;2023-09-07T02:37:01;95767.75;;;20.39;100.00
8298;BME280;4187;42.778;23.242;2023-09-07T02:39:28;95758.63;;;20.34;100.00
8298;BME280;4187;42.778;23.242;2023-09-07T02:41:55;95767.84;;;20.24;100.00
8298;BME280;4187;42.778;23.242;2023-09-07T02:44:22;95764.13;;;20.25;100.00
8298;BME280;4187;42.778;23.242;2023-09-07T02:46:49;95763.44;;;20.23;100.00
8298;BME280;4187;42.778;23.242;2023-09-07T02:49:17;95763.66;;;20.22;100.00
8298;BME280;4187;42.778;23.242;2023-09-07T02:51:44;95750.38;;;20.14;100.00
8298;BME280;4187;42.778;23.242;2023-09-07T02:54:11;95761.28;;;20.12;100.00
8298;BME280;4187;42.778;23.242;2023-09-07T02:56:38;95763.25;;;20.04;100.00
8298;BME280;4187;42.778;23.242;2023-09-07T02:59:04;95764.84;;;19.98;100.00
8298;BME280;4187;42.778;23.242;2023-09-07T03:01:31;95762.81;;;20.00;100.00
8298;BME280;4187;42.778;23.242;2023-09-07T03:03:58;95755.16;;;19.97;100.00
8298;BME280;4187;42.778;23.242;2023-09-07T03:06:26;95767.72;;;19.97;100.00
8298;BME280;4187;42.778;23.242;2023-09-07T03:08:53;95764.25;;;19.82;100.00
8298;BME280;4187;42.778;23.242;2023-09-07T03:11:20;95770.94;;;19.71;100.00
8298;BME280;4187;42.778;23.242;2023-09-07T03:13:47;95769.47;;;19.68;100.00
8298;BME280;4187;42.778;23.242;2023-09-07T03:16:14;95763.38;;;19.60;100.00
8298;BME280;4187;42.778;23.242;2023-09-07T03:18:40;95777.25;;;19.63;100.00
8298;BME280;4187;42.778;23.242;2023-09-07T03:21:07;95775.97;;;19.45;100.00
8298;BME280;4187;42.778;23.242;2023-09-07T03:23:35;95766.75;;;19.33;100.00
8298;BME280;4187;42.778;23.242;2023-09-07T03:26:05;95773.38;;;19.37;100.00
8298;BME280;4187;42.778;23.242;2023-09-07T03:28:31;95771.00;;;19.27;100.00
8298;BME280;4187;42.778;23.242;2023-09-07T03:30:58;95780.31;;;19.31;100.00
8298;BME280;4187;42.778;23.242;2023-09-07T03:33:25;95771.91;;;19.34;100.00
8298;BME280;4187;42.778;23.242;2023-09-07T03:35:52;95777.16;;;19.28;100.00
8298;BME280;4187;42.778;23.242;2023-09-07T03:38:24;95777.56;;;19.25;100.00
8298;BME280;4187;42.778;23.242;2023-09-07T03:40:52;95774.22;;;19.23;100.00
8298;BME280;4187;42.778;23.242;2023-09-07T03:43:19;95783.91;;;19.24;100.00
8298;BME280;4187;42.778;23.242;2023-09-07T03:45:46;95784.19;;;19.29;100.00
8298;BME280;4187;42.778;23.242;2023-09-07T03:48:13;95788.59;;;19.36;100.00
8298;BME280;4187;42.778;23.242;2023-09-07T03:50:40;95786.78;;;19.51;100.00
8298;BME280;4187;42.778;23.242;2023-09-07T03:53:07;95778.66;;;19.59;100.00
8298;BME280;4187;42.778;23.242;2023-09-07T03:55:40;95798.28;;;19.66;100.00
8298;BME280;4187;42.778;23.242;2023-09-07T03:58:09;95792.56;;;19.69;100.00
8298;BME280;4187;42.778;23.242;2023-09-07T04:00:38;95787.94;;;19.63;100.00
8298;BME280;4187;42.778;23.242;2023-09-07T04:03:05;95799.97;;;19.67;100.00
8298;BME280;4187;42.778;23.242;2023-09-07T04:05:32;95799.75;;;19.69;100.00
8298;BME280;4187;42.778;23.242;2023-09-07T04:07:59;95800.69;;;19.61;100.00
8298;BME280;4187;42.778;23.242;2023-09-07T04:10:28;95813.72;;;19.64;100.00
8298;BME280;4187;42.778;23.242;2023-09-07T04:12:55;95812.78;;;19.57;100.00
8298;BME280;4187;42.778;23.242;2023-09-07T04:15:23;95812.41;;;19.60;100.00
8298;BME280;4187;42.778;23.242;2023-09-07T04:17:51;95812.63;;;19.59;100.00
8298;BME280;4187;42.778;23.242;2023-09-07T04:20:18;95808.09;;;19.59;100.00
8298;BME280;4187;42.778;23.242;2023-09-07T04:22:45;95805.16;;;19.54;100.00
8298;BME280;4187;42.778;23.242;2023-09-07T04:25:12;95811.31;;;19.55;100.00
8298;BME280;4187;42.778;23.242;2023-09-07T04:27:39;95814.19;;;19.53;100.00
8298;BME280;4187;42.778;23.242;2023-09-07T04:30:07;95815.03;;;19.54;100.00
8298;BME280;4187;42.778;23.242;2023-09-07T04:32:35;95813.38;;;19.53;100.00
8298;BME280;4187;42.778;23.242;2023-09-07T04:35:03;95818.44;;;19.48;100.00
8298;BME280;4187;42.778;23.242;2023-09-07T04:37:29;95815.03;;;19.54;100.00
8298;BME280;4187;42.778;23.242;2023-09-07T04:39:56;95822.13;;;19.61;100.00
8298;BME280;4187;42.778;23.242;2023-09-07T04:42:23;95829.38;;;19.82;100.00
8298;BME280;4187;42.778;23.242;2023-09-07T04:44:50;95828.38;;;20.04;100.00
8298;BME280;4187;42.778;23.242;2023-09-07T04:47:17;95826.81;;;20.24;100.00
8298;BME280;4187;42.778;23.242;2023-09-07T04:49:50;95829.97;;;20.35;100.00
8298;BME280;4187;42.778;23.242;2023-09-07T04:52:17;95836.09;;;20.28;100.00
8298;BME280;4187;42.778;23.242;2023-09-07T04:54:44;95817.38;;;20.14;100.00
8298;BME280;4187;42.778;23.242;2023-09-07T04:57:11;95836.09;;;20.28;100.00
8298;BME280;4187;42.778;23.242;2023-09-07T04:59:37;95839.41;;;20.31;100.00
8298;BME280;4187;42.778;23.242;2023-09-07T05:02:04;95838.91;;;20.42;100.00
8298;BME280;4187;42.778;23.242;2023-09-07T05:04:31;95839.69;;;20.36;100.00
8298;BME280;4187;42.778;23.242;2023-09-07T05:06:59;95844.22;;;20.20;100.00
8298;BME280;4187;42.778;23.242;2023-09-07T05:09:26;95847.16;;;20.04;100.00
8298;BME280;4187;42.778;23.242;2023-09-07T05:11:55;95850.44;;;19.85;100.00
8298;BME280;4187;42.778;23.242;2023-09-07T05:14:22;95848.59;;;19.71;100.00
8298;BME280;4187;42.778;23.242;2023-09-07T05:16:49;95842.81;;;19.67;100.00
8298;BME280;4187;42.778;23.242;2023-09-07T05:19:16;95844.44;;;19.68;100.00
8298;BME280;4187;42.778;23.242;2023-09-07T05:21:43;95845.47;;;19.67;100.00
8298;BME280;4187;42.778;23.242;2023-09-07T05:24:13;95850.00;;;19.67;100.00
8298;BME280;4187;42.778;23.242;2023-09-07T05:26:40;95845.66;;;19.66;100.00
8298;BME280;4187;42.778;23.242;2023-09-07T05:29:06;95790.19;;;19.31;100.00
8298;BME280;4187;42.778;23.242;2023-09-07T05:31:33;95838.66;;;19.65;100.00
8298;BME280;4187;42.778;23.242;2023-09-07T05:34:00;95845.28;;;19.69;100.00
8298;BME280;4187;42.778;23.242;2023-09-07T05:36:27;95837.50;;;19.74;100.00
8298;BME280;4187;42.778;23.242;2023-09-07T05:38:54;95839.81;;;19.77;100.00
8298;BME280;4187;42.778;23.242;2023-09-07T05:41:22;95841.75;;;19.83;100.00
8298;BME280;4187;42.778;23.242;2023-09-07T05:43:49;95785.84;;;19.59;100.00
8298;BME280;4187;42.778;23.242;2023-09-07T05:46:15;95835.97;;;20.01;100.00
8298;BME280;4187;42.778;23.242;2023-09-07T05:48:42;95797.44;;;19.81;100.00
8298;BME280;4187;42.778;23.242;2023-09-07T05:51:09;95838.41;;;20.17;100.00
8298;BME280;4187;42.778;23.242;2023-09-07T05:53:36;95845.44;;;20.18;100.00
8298;BME280;4187;42.778;23.242;2023-09-07T05:56:03;95842.56;;;20.19;100.00
8298;BME280;4187;42.778;23.242;2023-09-07T05:58:31;95827.38;;;20.05;100.00
8298;BME280;4187;42.778;23.242;2023-09-07T06:00:59;95829.88;;;20.07;100.00
8298;BME280;4187;42.778;23.242;2023-09-07T06:03:26;95853.59;;;20.24;100.00
8298;BME280;4187;42.778;23.242;2023-09-07T06:06:08;95851.59;;;20.33;100.00
8298;BME280;4187;42.778;23.242;2023-09-07T06:08:35;95852.06;;;20.37;100.00
8298;BME280;4187;42.778;23.242;2023-09-07T06:11:01;95844.53;;;20.47;100.00
8298;BME280;4187;42.778;23.242;2023-09-07T06:13:28;95856.78;;;20.56;100.00
8298;BME280;4187;42.778;23.242;2023-09-07T06:15:56;95859.53;;;20.62;100.00
8298;BME280;4187;42.778;23.242;2023-09-07T06:18:25;95861.72;;;20.73;100.00
8298;BME280;4187;42.778;23.242;2023-09-07T06:20:52;95824.47;;;20.64;100.00
8298;BME280;4187;42.778;23.242;2023-09-07T06:23:19;95857.31;;;20.94;100.00
8298;BME280;4187;42.778;23.242;2023-09-07T06:25:46;95868.75;;;21.02;100.00
8298;BME280;4187;42.778;23.242;2023-09-07T06:28:13;95870.34;;;21.18;100.00
8298;BME280;4187;42.778;23.242;2023-09-07T06:30:40;95857.59;;;21.26;100.00
8298;BME280;4187;42.778;23.242;2023-09-07T06:33:08;95874.25;;;21.50;100.00
8298;BME280;4187;42.778;23.242;2023-09-07T06:35:35;95871.47;;;21.64;100.00
8298;BME280;4187;42.778;23.242;2023-09-07T06:38:01;95876.88;;;21.71;100.00
8298;BME280;4187;42.778;23.242;2023-09-07T06:40:28;95888.09;;;21.81;100.00
8298;BME280;4187;42.778;23.242;2023-09-07T06:42:55;95886.97;;;22.03;100.00
8298;BME280;4187;42.778;23.242;2023-09-07T06:45:23;95877.91;;;22.17;100.00
8298;BME280;4187;42.778;23.242;2023-09-07T06:47:50;95890.84;;;22.48;100.00
8298;BME280;4187;42.778;23.242;2023-09-07T06:50:19;95872.03;;;22.54;100.00
8298;BME280;4187;42.778;23.242;2023-09-07T06:52:46;95890.31;;;22.85;100.00
8298;BME280;4187;42.778;23.242;2023-09-07T06:55:13;95899.66;;;23.02;100.00
8298;BME280;4187;42.778;23.242;2023-09-07T06:57:40;95901.09;;;23.18;100.00
8298;BME280;4187;42.778;23.242;2023-09-07T07:00:08;95884.53;;;23.28;100.00
8298;BME280;4187;42.778;23.242;2023-09-07T07:02:35;95897.16;;;23.60;100.00
8298;BME280;4187;42.778;23.242;2023-09-07T07:05:02;95896.69;;;23.83;100.00
8298;BME280;4187;42.778;23.242;2023-09-07T07:07:31;95902.66;;;23.91;99.55
8298;BME280;4187;42.778;23.242;2023-09-07T07:09:58;95904.56;;;23.77;98.40
8298;BME280;4187;42.778;23.242;2023-09-07T07:12:24;95889.66;;;23.75;99.01
8298;BME280;4187;42.778;23.242;2023-09-07T07:14:51;95870.78;;;23.68;99.47
8298;BME280;4187;42.778;23.242;2023-09-07T07:17:18;95890.44;;;23.82;94.85
8298;BME280;4187;42.778;23.242;2023-09-07T07:19:45;95892.44;;;24.06;97.86
8298;BME280;4187;42.778;23.242;2023-09-07T07:22:12;95896.09;;;24.31;96.02
8298;BME280;4187;42.778;23.242;2023-09-07T07:24:41;95910.25;;;24.65;92.93
8298;BME280;4187;42.778;23.242;2023-09-07T07:27:08;95908.09;;;24.86;93.30
8298;BME280;4187;42.778;23.242;2023-09-07T07:29:36;95917.06;;;24.80;91.29
8298;BME280;4187;42.778;23.242;2023-09-07T07:32:03;95916.38;;;24.85;93.46
8298;BME280;4187;42.778;23.242;2023-09-07T07:34:30;95905.72;;;24.96;91.90
8298;BME280;4187;42.778;23.242;2023-09-07T07:36:58;95919.66;;;25.25;90.99
8298;BME280;4187;42.778;23.242;2023-09-07T07:39:25;95910.75;;;25.42;92.91
8298;BME280;4187;42.778;23.242;2023-09-07T07:41:53;95915.72;;;25.21;90.68
8298;BME280;4187;42.778;23.242;2023-09-07T07:44:20;95903.00;;;25.03;90.36
8298;BME280;4187;42.778;23.242;2023-09-07T07:46:47;95925.19;;;25.05;87.69
8298;BME280;4187;42.778;23.242;2023-09-07T07:49:14;95913.53;;;25.11;89.90
8298;BME280;4187;42.778;23.242;2023-09-07T07:51:41;95918.41;;;25.21;88.97
8298;BME280;4187;42.778;23.242;2023-09-07T07:54:07;95911.59;;;25.43;87.83
8298;BME280;4187;42.778;23.242;2023-09-07T07:56:34;95919.06;;;25.47;87.93
8298;BME280;4187;42.778;23.242;2023-09-07T07:59:02;95914.28;;;25.43;88.79
8298;BME280;4187;42.778;23.242;2023-09-07T08:01:29;95911.88;;;25.60;87.87
8298;BME280;4187;42.778;23.242;2023-09-07T08:03:56;95904.63;;;25.78;87.83
8298;BME280;4187;42.778;23.242;2023-09-07T08:06:23;95911.97;;;26.14;84.38
8298;BME280;4187;42.778;23.242;2023-09-07T08:08:49;95905.06;;;26.11;83.90
8298;BME280;4187;42.778;23.242;2023-09-07T08:11:16;95910.72;;;26.10;85.00
8298;BME280;4187;42.778;23.242;2023-09-07T08:13:46;95906.66;;;25.83;83.80
8298;BME280;4187;42.778;23.242;2023-09-07T08:16:15;95893.09;;;25.46;86.04
8298;BME280;4187;42.778;23.242;2023-09-07T08:18:41;95910.91;;;25.72;85.00
8298;BME280;4187;42.778;23.242;2023-09-07T08:21:09;95895.00;;;25.82;91.70
8298;BME280;4187;42.778;23.242;2023-09-07T08:23:36;95906.75;;;25.94;89.54
8298;BME280;4187;42.778;23.242;2023-09-07T08:26:02;95893.91;;;26.08;89.64
8298;BME280;4187;42.778;23.242;2023-09-07T08:28:30;95872.84;;;25.92;90.12
8298;BME280;4187;42.778;23.242;2023-09-07T08:30:58;95903.06;;;26.25;87.78
8298;BME280;4187;42.778;23.242;2023-09-07T08:33:27;95903.59;;;26.34;87.32
8298;BME280;4187;42.778;23.242;2023-09-07T08:35:56;95892.13;;;26.50;88.32
8298;BME280;4187;42.778;23.242;2023-09-07T08:38:25;95895.03;;;26.66;88.58
8298;BME280;4187;42.778;23.242;2023-09-07T08:40:53;95899.50;;;26.91;87.73
8298;BME280;4187;42.778;23.242;2023-09-07T08:43:21;95900.84;;;27.00;86.02
8298;BME280;4187;42.778;23.242;2023-09-07T08:45:51;95897.84;;;26.60;83.80
8298;BME280;4187;42.778;23.242;2023-09-07T08:48:19;95902.53;;;26.83;84.74
8298;BME280;4187;42.778;23.242;2023-09-07T08:50:48;95908.03;;;26.76;82.53
8298;BME280;4187;42.778;23.242;2023-09-07T08:53:18;95905.66;;;26.50;83.76
8298;BME280;4187;42.778;23.242;2023-09-07T08:55:45;95897.59;;;26.61;87.07
8298;BME280;4187;42.778;23.242;2023-09-07T08:58:12;95896.13;;;26.77;82.54
8298;BME280;4187;42.778;23.242;2023-09-07T09:00:41;95894.19;;;26.84;82.55
8298;BME280;4187;42.778;23.242;2023-09-07T09:03:09;95899.88;;;26.94;83.05
8298;BME280;4187;42.778;23.242;2023-09-07T09:05:39;95892.91;;;26.87;80.47
8298;BME280;4187;42.778;23.242;2023-09-07T09:08:10;95887.16;;;26.77;80.28
8298;BME280;4187;42.778;23.242;2023-09-07T09:10:38;95898.25;;;26.75;77.96
8298;BME280;4187;42.778;23.242;2023-09-07T09:13:06;95898.38;;;26.50;78.70
8298;BME280;4187;42.778;23.242;2023-09-07T09:15:33;95894.63;;;26.51;79.19
8298;BME280;4187;42.778;23.242;2023-09-07T09:18:09;95871.41;;;26.44;80.11
8298;BME280;4187;42.778;23.242;2023-09-07T09:20:37;95884.16;;;26.55;79.93
8298;BME280;4187;42.778;23.242;2023-09-07T09:23:04;95880.78;;;26.59;77.22
8298;BME280;4187;42.778;23.242;2023-09-07T09:25:34;95881.34;;;26.80;78.17
8298;BME280;4187;42.778;23.242;2023-09-07T09:28:00;95885.38;;;26.89;75.47
8298;BME280;4187;42.778;23.242;2023-09-07T09:30:27;95864.06;;;26.92;74.40
8298;BME280;4187;42.778;23.242;2023-09-07T09:32:55;95886.28;;;27.24;75.38
8298;BME280;4187;42.778;23.242;2023-09-07T09:35:23;95883.59;;;27.36;74.47
8298;BME280;4187;42.778;23.242;2023-09-07T09:37:50;95866.81;;;27.39;75.35
8298;BME280;4187;42.778;23.242;2023-09-07T09:40:17;95881.63;;;27.54;75.49
8298;BME280;4187;42.778;23.242;2023-09-07T09:42:46;95883.97;;;27.62;72.03
8298;BME280;4187;42.778;23.242;2023-09-07T09:45:12;95859.09;;;27.54;72.45
8298;BME280;4187;42.778;23.242;2023-09-07T09:47:41;95870.63;;;27.61;69.45
8298;BME280;4187;42.778;23.242;2023-09-07T09:50:10;95865.22;;;27.61;69.97
8298;BME280;4187;42.778;23.242;2023-09-07T09:52:38;95861.47;;;27.73;70.10
8298;BME280;4187;42.778;23.242;2023-09-07T09:55:05;95871.22;;;27.86;69.58
8298;BME280;4187;42.778;23.242;2023-09-07T09:57:34;95863.44;;;27.89;69.27
8298;BME280;4187;42.778;23.242;2023-09-07T10:00:04;95863.09;;;27.86;67.96
8298;BME280;4187;42.778;23.242;2023-09-07T10:02:47;95840.56;;;27.74;70.16
8298;BME280;4187;42.778;23.242;2023-09-07T10:05:16;95852.50;;;27.61;69.95
8298;BME280;4187;42.778;23.242;2023-09-07T10:07:45;95849.66;;;27.68;71.93
8298;BME280;4187;42.778;23.242;2023-09-07T10:10:14;95751.13;;;27.16;71.45
8298;BME280;4187;42.778;23.242;2023-09-07T10:12:42;95843.06;;;27.75;70.39
8298;BME280;4187;42.778;23.242;2023-09-07T10:15:26;95848.84;;;27.79;70.38
8298;BME280;4187;42.778;23.242;2023-09-07T10:18:06;95839.03;;;27.66;70.71
8298;BME280;4187;42.778;23.242;2023-09-07T10:20:53;95845.41;;;27.72;71.39
8298;BME280;4187;42.778;23.242;2023-09-07T10:23:21;95837.25;;;27.72;72.67
8298;BME280;4187;42.778;23.242;2023-09-07T10:25:50;95845.66;;;27.70;69.29
8298;BME280;4187;42.778;23.242;2023-09-07T10:28:18;95838.22;;;27.66;72.17
8298;BME280;4187;42.778;23.242;2023-09-07T10:30:57;95838.56;;;27.69;71.36
8298;BME280;4187;42.778;23.242;2023-09-07T10:33:24;95840.34;;;27.64;71.41
8298;BME280;4187;42.778;23.242;2023-09-07T10:35:51;95842.38;;;27.57;71.28
8298;BME280;4187;42.778;23.242;2023-09-07T10:38:18;95836.81;;;27.40;72.86
8298;BME280;4187;42.778;23.242;2023-09-07T10:40:45;95829.94;;;27.26;72.74
8298;BME280;4187;42.778;23.242;2023-09-07T10:43:11;95820.63;;;27.10;73.69
8298;BME280;4187;42.778;23.242;2023-09-07T10:45:38;95825.69;;;27.18;74.97
8298;BME280;4187;42.778;23.242;2023-09-07T10:48:08;95816.47;;;26.96;74.26
8298;BME280;4187;42.778;23.242;2023-09-07T10:50:42;95805.28;;;26.81;75.13
8298;BME280;4187;42.778;23.242;2023-09-07T10:53:11;95825.31;;;26.92;76.14
8298;BME280;4187;42.778;23.242;2023-09-07T10:55:38;95830.50;;;26.82;75.23
8298;BME280;4187;42.778;23.242;2023-09-07T10:58:05;95829.84;;;26.68;76.00
8298;BME280;4187;42.778;23.242;2023-09-07T11:00:32;95828.44;;;26.47;76.48
8298;BME280;4187;42.778;23.242;2023-09-07T11:02:59;95834.66;;;26.36;78.27
8298;BME280;4187;42.778;23.242;2023-09-07T11:05:27;95829.22;;;26.36;77.97
8298;BME280;4187;42.778;23.242;2023-09-07T11:07:54;95834.06;;;26.34;79.33
8298;BME280;4187;42.778;23.242;2023-09-07T11:10:26;95827.34;;;26.37;79.19
8298;BME280;4187;42.778;23.242;2023-09-07T11:12:53;95828.44;;;26.36;79.13
8298;BME280;4187;42.778;23.242;2023-09-07T11:15:20;95811.69;;;26.27;79.42
8298;BME280;4187;42.778;23.242;2023-09-07T11:17:47;95809.19;;;26.26;80.29
8298;BME280;4187;42.778;23.242;2023-09-07T11:20:14;95813.44;;;26.33;79.70
8298;BME280;4187;42.778;23.242;2023-09-07T11:22:43;95755.66;;;25.98;80.10
8298;BME280;4187;42.778;23.242;2023-09-07T11:25:10;95808.03;;;26.33;79.57
8298;BME280;4187;42.778;23.242;2023-09-07T11:27:39;95804.75;;;26.31;80.22
8298;BME280;4187;42.778;23.242;2023-09-07T11:30:07;95795.53;;;26.21;80.98
8298;BME280;4187;42.778;23.242;2023-09-07T11:32:34;95800.84;;;26.27;79.45
8298;BME280;4187;42.778;23.242;2023-09-07T11:35:01;95817.09;;;26.27;80.20
8298;BME280;4187;42.778;23.242;2023-09-07T11:37:28;95803.44;;;26.22;80.66
8298;BME280;4187;42.778;23.242;2023-09-07T11:39:56;95794.56;;;26.15;80.43
8298;BME280;4187;42.778;23.242;2023-09-07T11:42:23;95807.53;;;26.06;81.11
8298;BME280;4187;42.778;23.242;2023-09-07T11:44:50;95800.03;;;26.08;80.68
8298;BME280;4187;42.778;23.242;2023-09-07T11:47:17;95805.50;;;26.20;80.51
8298;BME280;4187;42.778;23.242;2023-09-07T11:49:44;95805.06;;;26.23;80.08
8298;BME280;4187;42.778;23.242;2023-09-07T11:52:11;95797.53;;;26.25;79.98
8298;BME280;4187;42.778;23.242;2023-09-07T11:54:38;95796.94;;;26.23;79.29
8298;BME280;4187;42.778;23.242;2023-09-07T11:57:06;95795.38;;;26.16;78.57
8298;BME280;4187;42.778;23.242;2023-09-07T11:59:34;95798.97;;;26.09;78.64
8298;BME280;4187;42.778;23.242;2023-09-07T12:02:02;95789.22;;;26.08;79.97
8298;BME280;4187;42.778;23.242;2023-09-07T12:04:29;95788.97;;;26.10;78.14
8298;BME280;4187;42.778;23.242;2023-09-07T12:06:56;95785.22;;;26.11;78.85
8298;BME280;4187;42.778;23.242;2023-09-07T12:09:22;95784.31;;;26.17;79.50
8298;BME280;4187;42.778;23.242;2023-09-07T12:11:49;95791.03;;;26.14;78.73
8298;BME280;4187;42.778;23.242;2023-09-07T12:14:18;95787.09;;;26.10;77.91
8298;BME280;4187;42.778;23.242;2023-09-07T12:16:45;95780.28;;;26.08;79.49
8298;BME280;4187;42.778;23.242;2023-09-07T12:19:11;95784.63;;;26.09;78.44
8298;BME280;4187;42.778;23.242;2023-09-07T12:21:38;95779.44;;;26.07;79.46
8298;BME280;4187;42.778;23.242;2023-09-07T12:24:06;95780.88;;;26.10;77.93
8298;BME280;4187;42.778;23.242;2023-09-07T12:26:33;95776.69;;;26.14;78.93
8298;BME280;4187;42.778;23.242;2023-09-07T12:29:00;95744.22;;;25.96;78.51
8298;BME280;4187;42.778;23.242;2023-09-07T12:31:30;95760.66;;;26.12;79.18
8298;BME280;4187;42.778;23.242;2023-09-07T12:33:57;95766.97;;;26.06;78.42
8298;BME280;4187;42.778;23.242;2023-09-07T12:36:24;95766.25;;;25.99;78.35
8298;BME280;4187;42.778;23.242;2023-09-07T12:38:55;95772.19;;;25.90;78.95
8298;BME280;4187;42.778;23.242;2023-09-07T12:41:23;95774.53;;;25.86;79.43
8298;BME280;4187;42.778;23.242;2023-09-07T12:43:50;95766.19;;;25.88;79.66
8298;BME280;4187;42.778;23.242;2023-09-07T12:46:18;95775.66;;;25.79;79.96
8298;BME280;4187;42.778;23.242;2023-09-07T12:48:46;95769.22;;;25.62;79.26
8298;BME280;4187;42.778;23.242;2023-09-07T12:51:13;95773.78;;;25.61;79.28
8298;BME280;4187;42.778;23.242;2023-09-07T12:53:40;95779.28;;;25.73;79.90
8298;BME280;4187;42.778;23.242;2023-09-07T12:56:07;95782.03;;;25.66;80.11
8298;BME280;4187;42.778;23.242;2023-09-07T12:58:34;95783.47;;;25.69;80.49
8298;BME280;4187;42.778;23.242;2023-09-07T13:01:00;95777.16;;;25.75;80.66
8298;BME280;4187;42.778;23.242;2023-09-07T13:03:28;95791.66;;;25.80;80.54
8298;BME280;4187;42.778;23.242;2023-09-07T13:05:56;95773.94;;;25.84;80.86
8298;BME280;4187;42.778;23.242;2023-09-07T13:08:23;95786.38;;;25.85;79.08